Time;durP1;ratioP1;P1;durP2;ratioP2;P2;SDS_P1;SDS_P2;PMS_P1;PMS_P2;Temp;Humidity;BMP_temperature;BMP_pressure;BME280_temperature;BME280_humidity;BME280_pressure;Samples;Min_cycle;Max_cycle;Signal;HPM_P1;HPM_P2
2021/07/10 00:02:02;;;;;;;4.65;3.47;;;15.60;99.90;;;;;;6214588;23;20012;-49
2021/07/10 00:04:28;;;;;;;4.60;3.45;;;15.50;99.90;;;;;;6214454;23;20433;-51
2021/07/10 00:06:56;;;;;;;5.53;3.92;;;15.60;99.90;;;;;;6214426;23;20074;-51
2021/07/10 00:09:22;;;;;;;3.88;3.45;;;15.60;99.90;;;;;;6214245;23;20079;-50
2021/07/10 00:11:47;;;;;;;4.25;3.33;;;15.60;99.90;;;;;;6214383;23;20032;-48
2021/07/10 00:14:13;;;;;;;8.60;3.58;;;15.60;99.90;;;;;;6214120;23;20008;-50
2021/07/10 00:16:39;;;;;;;7.75;4.68;;;15.70;99.90;;;;;;6214265;23;20349;-49
2021/07/10 00:19:04;;;;;;;10.48;3.97;;;15.70;99.90;;;;;;6213768;23;20114;-49
2021/07/10 00:21:30;;;;;;;6.07;3.63;;;15.60;99.90;;;;;;6214100;23;20001;-49
2021/07/10 00:23:55;;;;;;;5.93;3.63;;;15.70;99.90;;;;;;6214354;23;20055;-48
2021/07/10 00:26:21;;;;;;;3.80;3.38;;;15.70;99.90;;;;;;6214055;23;20009;-49
2021/07/10 00:28:47;;;;;;;7.25;4.18;;;15.70;99.90;;;;;;6213664;23;20401;-48
2021/07/10 00:31:12;;;;;;;5.25;3.67;;;15.70;99.90;;;;;;6214238;23;20011;-50
2021/07/10 00:33:38;;;;;;;5.45;4.20;;;15.60;99.90;;;;;;6214094;23;20329;-48
2021/07/10 00:36:03;;;;;;;4.20;3.80;;;15.60;99.90;;;;;;6214464;23;20009;-50
2021/07/10 00:38:29;;;;;;;5.13;3.60;;;15.60;99.90;;;;;;6213627;23;20001;-50
2021/07/10 00:40:54;;;;;;;4.32;3.85;;;15.60;99.90;;;;;;6213917;23;20004;-49
2021/07/10 00:43:21;;;;;;;4.85;4.30;;;15.60;99.90;;;;;;6213657;23;20028;-51
2021/07/10 00:45:47;;;;;;;5.43;4.38;;;15.60;99.90;;;;;;6215877;23;19996;-50
2021/07/10 00:48:13;;;;;;;5.22;4.25;;;15.60;99.90;;;;;;6215622;23;20005;-48
2021/07/10 00:50:38;;;;;;;8.18;4.38;;;15.60;99.90;;;;;;6215909;23;20449;-49
2021/07/10 00:53:04;;;;;;;6.72;4.97;;;15.50;99.90;;;;;;6216150;23;20408;-49
2021/07/10 00:55:30;;;;;;;6.60;4.55;;;15.50;99.90;;;;;;6215870;23;20325;-48
2021/07/10 00:57:55;;;;;;;8.88;4.53;;;15.50;99.90;;;;;;6214996;23;20006;-48
2021/07/10 01:00:23;;;;;;;9.38;5.05;;;15.50;99.90;;;;;;6216564;23;20417;-50
2021/07/10 01:02:50;;;;;;;8.30;4.93;;;15.50;99.90;;;;;;6216049;23;20033;-48
2021/07/10 01:05:19;;;;;;;5.68;5.00;;;15.40;99.90;;;;;;6215810;23;20007;-48
2021/07/10 01:07:44;;;;;;;6.70;5.05;;;15.40;99.90;;;;;;6215046;23;20008;-48
2021/07/10 01:10:11;;;;;;;7.25;5.30;;;15.50;99.90;;;;;;6215748;23;20015;-50
2021/07/10 01:12:38;;;;;;;7.95;4.93;;;15.60;99.90;;;;;;6215634;23;20009;-49
2021/07/10 01:15:07;;;;;;;5.97;4.97;;;15.60;99.90;;;;;;6215847;23;20009;-48
2021/07/10 01:17:32;;;;;;;12.63;5.18;;;15.60;99.90;;;;;;6215214;23;20425;-49
2021/07/10 01:20:05;;;;;;;9.85;5.72;;;15.60;99.90;;;;;;6215343;23;20095;-48
2021/07/10 01:22:32;;;;;;;7.63;4.82;;;15.60;99.90;;;;;;6215438;23;20004;-48
2021/07/10 01:24:57;;;;;;;5.88;5.05;;;15.60;99.90;;;;;;6215747;23;20000;-50
2021/07/10 01:27:23;;;;;;;7.30;5.78;;;15.60;99.90;;;;;;6215351;23;20497;-48
2021/07/10 01:29:49;;;;;;;7.38;5.55;;;15.60;99.90;;;;;;6214955;23;20008;-48
2021/07/10 01:32:17;;;;;;;8.25;6.50;;;15.60;99.90;;;;;;6215422;23;20373;-50
2021/07/10 01:34:45;;;;;;;8.30;6.00;;;15.60;99.90;;;;;;6215895;23;20302;-48
2021/07/10 01:37:10;;;;;;;8.02;6.60;;;15.60;99.90;;;;;;6215110;23;20302;-48
2021/07/10 01:39:37;;;;;;;7.57;6.28;;;15.60;99.90;;;;;;6215079;23;20004;-50
2021/07/10 01:42:02;;;;;;;8.05;6.50;;;15.70;99.90;;;;;;6215313;23;20064;-48
2021/07/10 01:44:28;;;;;;;8.32;6.15;;;15.60;99.90;;;;;;6215461;23;20001;-49
2021/07/10 01:46:54;;;;;;;6.47;5.65;;;15.70;99.90;;;;;;6215634;23;20058;-49
2021/07/10 01:49:19;;;;;;;9.70;7.22;;;15.70;99.90;;;;;;6214769;23;20039;-50
2021/07/10 01:51:44;;;;;;;11.18;7.90;;;15.70;99.90;;;;;;6188581;23;20078;-49
2021/07/10 01:54:10;;;;;;;8.00;7.10;;;15.70;99.90;;;;;;6215086;23;20005;-49
2021/07/10 01:56:36;;;;;;;14.45;8.38;;;15.80;99.90;;;;;;6215523;23;20012;-48
2021/07/10 01:59:01;;;;;;;10.80;7.78;;;15.90;99.90;;;;;;6214483;23;20024;-54
2021/07/10 02:01:27;;;;;;;11.82;7.63;;;15.90;99.90;;;;;;6215367;23;20080;-49
2021/07/10 02:03:52;;;;;;;12.23;8.60;;;15.90;99.90;;;;;;6215235;23;20047;-48
2021/07/10 02:06:18;;;;;;;10.43;7.72;;;15.90;99.90;;;;;;6214948;23;20004;-48
2021/07/10 02:08:44;;;;;;;12.82;9.00;;;15.80;99.90;;;;;;6215104;23;20009;-48
2021/07/10 02:11:10;;;;;;;12.38;8.98;;;15.90;99.90;;;;;;6215316;23;20054;-49
2021/07/10 02:13:36;;;;;;;10.75;8.38;;;15.90;99.90;;;;;;6215089;23;20014;-51
2021/07/10 02:16:03;;;;;;;13.90;9.13;;;16.00;99.90;;;;;;6215473;23;20004;-49
2021/07/10 02:18:28;;;;;;;14.77;9.70;;;16.00;99.90;;;;;;6215293;23;20011;-49
2021/07/10 02:20:54;;;;;;;13.35;9.93;;;16.00;99.90;;;;;;6214789;23;20009;-50
2021/07/10 02:23:19;;;;;;;12.30;9.52;;;16.00;99.90;;;;;;6215289;23;20043;-50
2021/07/10 02:25:45;;;;;;;13.82;9.38;;;16.00;99.90;;;;;;6214910;23;20417;-50
2021/07/10 02:28:10;;;;;;;14.25;9.70;;;16.00;99.90;;;;;;6214259;23;20372;-50
2021/07/10 02:30:36;;;;;;;12.43;9.38;;;16.00;99.90;;;;;;6215028;23;20005;-51
2021/07/10 02:33:04;;;;;;;14.45;10.32;;;16.10;99.90;;;;;;6214849;23;20374;-49
2021/07/10 02:35:30;;;;;;;12.18;9.88;;;16.10;99.90;;;;;;6214749;23;20028;-49
2021/07/10 02:37:57;;;;;;;14.65;9.57;;;16.10;99.90;;;;;;6214434;23;20498;-48
2021/07/10 02:40:22;;;;;;;12.45;9.80;;;16.10;99.90;;;;;;6214667;23;20087;-48
2021/07/10 02:42:49;;;;;;;13.18;10.20;;;16.20;99.90;;;;;;6214904;23;20028;-49
2021/07/10 02:45:17;;;;;;;12.75;9.55;;;16.20;99.90;;;;;;6215259;23;20015;-48
2021/07/10 02:47:43;;;;;;;13.15;9.88;;;16.20;99.90;;;;;;6188255;23;20005;-48
2021/07/10 02:50:14;;;;;;;14.20;10.52;;;16.20;99.90;;;;;;6214430;23;20021;-49
2021/07/10 02:52:40;;;;;;;14.38;9.43;;;16.10;99.90;;;;;;6214978;23;20425;-49
2021/07/10 02:55:06;;;;;;;13.85;9.93;;;16.10;99.90;;;;;;6214944;23;20011;-50
2021/07/10 02:57:32;;;;;;;18.85;11.13;;;16.10;99.90;;;;;;6214287;23;20407;-50
2021/07/10 02:59:57;;;;;;;14.75;10.32;;;16.20;99.90;;;;;;6214416;23;20032;-51
2021/07/10 03:02:23;;;;;;;14.93;9.48;;;16.20;99.90;;;;;;6214578;23;20001;-48
2021/07/10 03:04:48;;;;;;;14.07;9.57;;;16.20;99.90;;;;;;6214887;23;20004;-49
2021/07/10 03:07:14;;;;;;;13.38;9.63;;;16.20;99.90;;;;;;6214676;23;20490;-49
2021/07/10 03:09:39;;;;;;;13.15;9.35;;;16.20;99.90;;;;;;6214202;23;20001;-48
2021/07/10 03:12:05;;;;;;;12.75;8.55;;;16.20;99.90;;;;;;6214969;23;20023;-48
2021/07/10 03:14:31;;;;;;;14.13;9.75;;;16.20;99.90;;;;;;6213855;23;20055;-48
2021/07/10 03:16:57;;;;;;;14.35;9.88;;;16.20;99.90;;;;;;6214498;23;20008;-48
2021/07/10 03:19:22;;;;;;;15.15;9.93;;;16.30;99.90;;;;;;6213949;23;20016;-48
2021/07/10 03:21:48;;;;;;;15.70;11.10;;;16.30;99.90;;;;;;6214571;23;20004;-49
2021/07/10 03:24:14;;;;;;;14.35;10.57;;;16.20;99.90;;;;;;6214820;23;20421;-48
2021/07/10 03:26:40;;;;;;;12.82;9.55;;;16.30;99.90;;;;;;6214446;23;20012;-48
2021/07/10 03:29:05;;;;;;;12.98;9.30;;;16.30;99.90;;;;;;6213105;23;20421;-50
2021/07/10 03:31:31;;;;;;;15.65;10.50;;;16.30;99.90;;;;;;6214240;23;20301;-48
2021/07/10 03:33:57;;;;;;;12.38;9.90;;;16.30;99.90;;;;;;6214468;23;20004;-48
2021/07/10 03:36:26;;;;;;;14.18;9.98;;;16.30;99.90;;;;;;6214311;23;20000;-49
2021/07/10 03:38:54;;;;;;;15.15;10.45;;;16.30;99.90;;;;;;6214207;23;20422;-49
2021/07/10 03:41:20;;;;;;;17.65;11.43;;;16.40;99.90;;;;;;6214477;23;20005;-48
2021/07/10 03:43:46;;;;;;;21.58;10.60;;;16.40;99.90;;;;;;6213794;23;20028;-48
2021/07/10 03:46:12;;;;;;;18.45;10.32;;;16.30;99.90;;;;;;6214309;23;20001;-48
2021/07/10 03:48:37;;;;;;;14.98;11.05;;;16.30;99.90;;;;;;6213932;23;20005;-49
2021/07/10 03:51:04;;;;;;;14.35;11.15;;;16.40;99.90;;;;;;6214272;23;20340;-48
2021/07/10 03:53:30;;;;;;;15.70;10.95;;;16.40;99.90;;;;;;6214235;23;20009;-48
2021/07/10 03:55:56;;;;;;;15.57;10.40;;;16.40;99.90;;;;;;6214547;23;20357;-53
2021/07/10 03:58:21;;;;;;;21.10;11.80;;;16.40;99.90;;;;;;6213629;23;20091;-49
2021/07/10 04:00:47;;;;;;;15.60;11.52;;;16.30;99.90;;;;;;6214111;23;20031;-50
2021/07/10 04:03:12;;;;;;;20.98;12.20;;;16.30;99.90;;;;;;6214287;23;20028;-48
2021/07/10 04:05:38;;;;;;;14.05;11.27;;;16.30;99.90;;;;;;6214521;23;20413;-53
2021/07/10 04:08:04;;;;;;;14.65;10.68;;;16.30;99.90;;;;;;6213935;23;20016;-50
2021/07/10 04:10:29;;;;;;;21.88;11.70;;;16.30;99.90;;;;;;6214494;23;20036;-49
2021/07/10 04:12:55;;;;;;;15.25;10.68;;;16.30;99.90;;;;;;6214038;23;20005;-51
2021/07/10 04:15:21;;;;;;;18.95;10.82;;;16.30;99.90;;;;;;6213921;23;20380;-51
2021/07/10 04:17:47;;;;;;;14.13;11.10;;;16.40;99.90;;;;;;6214344;23;20004;-48
2021/07/10 04:20:14;;;;;;;21.70;11.13;;;16.40;99.90;;;;;;6216619;23;20118;-48
2021/07/10 04:22:41;;;;;;;16.92;11.68;;;16.40;99.90;;;;;;6216302;23;20039;-49
2021/07/10 04:25:09;;;;;;;15.48;9.65;;;16.40;99.90;;;;;;6189343;23;20058;-50
2021/07/10 04:27:38;;;;;;;15.15;10.45;;;16.40;99.90;;;;;;6215828;23;20012;-49
2021/07/10 04:30:05;;;;;;;17.58;11.48;;;16.40;99.90;;;;;;6188899;23;20019;-48
2021/07/10 04:32:31;;;;;;;18.38;11.27;;;16.40;99.90;;;;;;6216272;23;20310;-48
2021/07/10 04:34:56;;;;;;;17.80;11.52;;;16.50;99.90;;;;;;6216272;23;20012;-48
2021/07/10 04:37:22;;;;;;;14.85;10.40;;;16.40;99.90;;;;;;6215877;23;20008;-48
2021/07/10 04:39:48;;;;;;;19.45;10.15;;;16.40;99.90;;;;;;6215491;23;20008;-48
2021/07/10 04:42:13;;;;;;;17.25;10.98;;;16.40;99.90;;;;;;6216053;23;20455;-48
2021/07/10 04:44:39;;;;;;;14.98;10.68;;;16.40;99.90;;;;;;6215784;23;20004;-48
2021/07/10 04:47:04;;;;;;;17.38;10.93;;;16.50;99.90;;;;;;6216167;23;20012;-49
2021/07/10 04:49:30;;;;;;;19.98;11.25;;;16.50;99.90;;;;;;6215551;23;20020;-49
2021/07/10 04:51:55;;;;;;;16.35;11.27;;;16.50;99.90;;;;;;6215976;23;20036;-48
2021/07/10 04:54:21;;;;;;;16.92;11.48;;;16.50;99.90;;;;;;6216029;23;20008;-49
2021/07/10 04:56:47;;;;;;;17.20;11.30;;;16.50;99.90;;;;;;6216012;23;20119;-48
2021/07/10 04:59:12;;;;;;;17.83;11.00;;;16.50;99.90;;;;;;6214920;23;20062;-48
2021/07/10 05:01:38;;;;;;;16.38;10.73;;;16.50;99.90;;;;;;6215803;23;20004;-50
2021/07/10 05:04:03;;;;;;;15.60;10.38;;;16.60;99.90;;;;;;6216012;23;20143;-48
2021/07/10 05:06:29;;;;;;;17.33;11.32;;;16.60;99.90;;;;;;6215946;23;20007;-50
2021/07/10 05:08:54;;;;;;;21.30;12.80;;;16.70;99.90;;;;;;6215832;23;20007;-48
2021/07/10 05:11:20;;;;;;;19.85;11.70;;;16.70;99.90;;;;;;6215871;23;20051;-48
2021/07/10 05:13:45;;;;;;;18.30;11.43;;;16.70;99.90;;;;;;6215159;23;20015;-48
2021/07/10 05:16:11;;;;;;;16.17;10.88;;;16.70;99.90;;;;;;6215645;23;20013;-49
2021/07/10 05:18:36;;;;;;;15.25;11.68;;;16.70;99.90;;;;;;6215401;23;20086;-50
2021/07/10 05:21:02;;;;;;;22.60;11.73;;;16.70;99.90;;;;;;6215332;23;20011;-51
2021/07/10 05:23:28;;;;;;;16.42;11.40;;;16.70;99.90;;;;;;6215695;23;20095;-51
2021/07/10 05:25:53;;;;;;;21.70;12.13;;;16.80;99.90;;;;;;6215621;23;19997;-50
2021/07/10 05:28:19;;;;;;;19.63;11.93;;;16.80;99.90;;;;;;6214660;23;20320;-52
2021/07/10 05:30:47;;;;;;;17.83;10.02;;;16.80;99.90;;;;;;6215029;23;20004;-49
2021/07/10 05:33:12;;;;;;;17.65;10.73;;;16.80;99.90;;;;;;6215818;23;20005;-48
2021/07/10 05:35:38;;;;;;;14.85;11.25;;;16.90;99.90;;;;;;6215783;23;20011;-49
2021/07/10 05:38:04;;;;;;;16.10;11.20;;;16.90;99.90;;;;;;6215367;23;19997;-48
2021/07/10 05:40:29;;;;;;;12.75;10.05;;;16.90;99.90;;;;;;6215383;23;20013;-48
2021/07/10 05:42:55;;;;;;;16.08;9.95;;;16.90;99.90;;;;;;6189148;23;20001;-48
2021/07/10 05:45:21;;;;;;;13.55;10.57;;;16.90;99.90;;;;;;6215562;23;20034;-48
2021/07/10 05:47:47;;;;;;;17.45;11.50;;;17.00;99.90;;;;;;6214943;23;19996;-48
2021/07/10 05:50:13;;;;;;;16.90;10.93;;;17.00;99.90;;;;;;6215082;23;20025;-48
2021/07/10 05:52:40;;;;;;;17.02;11.07;;;17.00;99.90;;;;;;6215784;23;20001;-48
2021/07/10 05:55:05;;;;;;;14.10;10.30;;;17.00;99.90;;;;;;6215453;23;20001;-48
2021/07/10 05:57:32;;;;;;;17.48;11.50;;;16.90;99.90;;;;;;6215235;23;20012;-48
2021/07/10 05:59:57;;;;;;;15.55;10.82;;;16.90;99.90;;;;;;6214615;23;20035;-48
2021/07/10 06:02:23;;;;;;;16.20;10.70;;;17.00;99.90;;;;;;6215457;23;20325;-49
2021/07/10 06:04:49;;;;;;;16.42;10.90;;;17.00;99.90;;;;;;6215348;23;20032;-48
2021/07/10 06:07:14;;;;;;;17.35;12.15;;;17.10;99.90;;;;;;6215396;23;20055;-48
2021/07/10 06:09:40;;;;;;;17.55;11.63;;;17.20;99.90;;;;;;6215048;23;20062;-48
2021/07/10 06:12:06;;;;;;;17.90;12.25;;;17.20;99.90;;;;;;6214872;23;20055;-48
2021/07/10 06:14:32;;;;;;;17.70;11.23;;;17.20;99.90;;;;;;6215129;23;20080;-48
2021/07/10 06:16:59;;;;;;;13.10;10.35;;;17.10;99.90;;;;;;6215005;23;20028;-47
2021/07/10 06:19:24;;;;;;;16.92;11.75;;;17.20;99.90;;;;;;6214908;23;20016;-48
2021/07/10 06:21:50;;;;;;;18.58;12.35;;;17.20;99.90;;;;;;6215296;23;20004;-48
2021/07/10 06:24:16;;;;;;;17.27;11.43;;;17.20;99.90;;;;;;6215319;23;20004;-48
2021/07/10 06:26:42;;;;;;;15.88;10.90;;;17.20;99.90;;;;;;6214885;23;20007;-48
2021/07/10 06:29:07;;;;;;;15.27;11.20;;;17.20;99.90;;;;;;6214498;23;20004;-49
2021/07/10 06:31:33;;;;;;;17.23;11.82;;;17.30;99.90;;;;;;6215227;23;20008;-50
2021/07/10 06:34:00;;;;;;;17.65;11.02;;;17.30;99.90;;;;;;6215117;23;20076;-50
2021/07/10 06:36:26;;;;;;;15.18;10.40;;;17.30;99.90;;;;;;6214838;23;19997;-50
2021/07/10 06:38:52;;;;;;;18.17;11.10;;;17.30;99.90;;;;;;6214457;23;20005;-50
2021/07/10 06:41:17;;;;;;;16.25;11.18;;;17.40;99.90;;;;;;6214529;23;20031;-51
2021/07/10 06:43:43;;;;;;;15.32;9.63;;;17.40;99.90;;;;;;6214281;23;20007;-48
2021/07/10 06:46:09;;;;;;;16.67;10.57;;;17.40;99.90;;;;;;6214871;23;20007;-48
2021/07/10 06:48:35;;;;;;;16.92;10.13;;;17.40;99.90;;;;;;6214230;23;20286;-48
2021/07/10 06:51:01;;;;;;;13.00;9.77;;;17.50;99.90;;;;;;6214546;23;20062;-48
2021/07/10 06:53:27;;;;;;;14.02;10.07;;;17.50;99.90;;;;;;6214991;23;20009;-48
2021/07/10 06:55:52;;;;;;;14.48;9.55;;;17.50;99.90;;;;;;6214601;23;20487;-48
2021/07/10 06:58:18;;;;;;;16.20;10.25;;;17.60;99.90;;;;;;6213697;23;20023;-50
2021/07/10 07:00:45;;;;;;;15.27;10.10;;;17.70;99.90;;;;;;6214593;23;20337;-53
2021/07/10 07:03:11;;;;;;;15.70;9.63;;;17.80;99.90;;;;;;6214296;23;20039;-49
2021/07/10 07:05:36;;;;;;;11.18;8.55;;;17.80;99.90;;;;;;6214347;23;20001;-50
2021/07/10 07:08:02;;;;;;;11.32;8.50;;;17.90;99.90;;;;;;6214079;23;20291;-49
2021/07/10 07:10:28;;;;;;;16.50;9.18;;;17.90;99.90;;;;;;6213988;23;20345;-49
2021/07/10 07:12:53;;;;;;;13.23;9.15;;;17.90;99.90;;;;;;6214576;23;20012;-49
2021/07/10 07:15:19;;;;;;;14.88;8.48;;;18.00;99.90;;;;;;6214333;23;20008;-52
2021/07/10 07:17:45;;;;;;;12.55;8.15;;;18.00;99.90;;;;;;6187102;23;20016;-49
2021/07/10 07:20:13;;;;;;;10.98;7.88;;;18.00;99.90;;;;;;6215053;23;20017;-48
2021/07/10 07:22:43;;;;;;;15.18;8.10;;;18.10;99.90;;;;;;6213667;23;20008;-48
2021/07/10 07:25:09;;;;;;;9.68;7.75;;;18.20;99.90;;;;;;6214638;23;20008;-51
2021/07/10 07:27:34;;;;;;;15.45;8.13;;;18.40;99.90;;;;;;6213730;23;20008;-51
2021/07/10 07:30:00;;;;;;;10.20;6.65;;;18.50;99.90;;;;;;6214648;23;20009;-48
2021/07/10 07:32:27;;;;;;;11.65;7.53;;;18.50;99.90;;;;;;6213276;23;20012;-48
2021/07/10 07:34:52;;;;;;;9.95;7.63;;;18.60;99.90;;;;;;6214716;23;20461;-48
2021/07/10 07:37:18;;;;;;;8.95;7.15;;;18.70;99.90;;;;;;6214167;23;20035;-51
2021/07/10 07:39:46;;;;;;;13.93;7.07;;;18.60;99.90;;;;;;6213403;23;20054;-52
2021/07/10 07:42:17;;;;;;;18.05;7.78;;;18.70;99.90;;;;;;6214296;23;20352;-52
2021/07/10 07:44:43;;;;;;;8.48;6.22;;;18.80;99.90;;;;;;6213612;23;20071;-48
2021/07/10 07:47:11;;;;;;;7.88;6.40;;;18.80;99.90;;;;;;6213944;23;20000;-52
2021/07/10 07:49:37;;;;;;;8.48;6.45;;;18.80;99.90;;;;;;6212953;23;20099;-48
2021/07/10 07:52:04;;;;;;;8.25;5.63;;;18.70;99.90;;;;;;6214133;23;20039;-52
2021/07/10 07:54:30;;;;;;;7.63;5.82;;;18.70;99.90;;;;;;6216887;23;20004;-48
2021/07/10 07:56:55;;;;;;;10.35;6.40;;;18.80;99.90;;;;;;6217035;23;20315;-48
2021/07/10 07:59:21;;;;;;;6.95;5.47;;;18.90;99.90;;;;;;6216851;23;20000;-48
2021/07/10 08:01:46;;;;;;;7.72;6.32;;;19.00;99.90;;;;;;6216726;23;20001;-48
2021/07/10 08:04:12;;;;;;;9.40;5.50;;;19.20;99.90;;;;;;6216496;23;20008;-49
2021/07/10 08:06:38;;;;;;;10.20;5.90;;;19.20;99.90;;;;;;6217249;23;19996;-48
2021/07/10 08:09:04;;;;;;;7.40;5.60;;;19.20;99.90;;;;;;6217067;23;20464;-50
2021/07/10 08:11:30;;;;;;;8.30;6.15;;;19.20;99.90;;;;;;6217148;23;20016;-48
2021/07/10 08:13:56;;;;;;;9.75;5.30;;;19.30;99.90;;;;;;6217145;23;20321;-48
2021/07/10 08:16:22;;;;;;;8.95;5.07;;;19.40;99.90;;;;;;6216769;23;20011;-50
2021/07/10 08:18:48;;;;;;;9.07;5.40;;;19.50;99.90;;;;;;6216753;23;20412;-51
2021/07/10 08:21:13;;;;;;;7.70;5.50;;;19.60;99.90;;;;;;6215637;23;20059;-48
2021/07/10 08:23:40;;;;;;;7.22;5.93;;;19.70;99.90;;;;;;6216921;23;20390;-50
2021/07/10 08:26:05;;;;;;;9.35;5.35;;;19.70;99.90;;;;;;6215495;23;20004;-49
2021/07/10 08:28:31;;;;;;;8.80;5.80;;;19.90;99.90;;;;;;6216264;23;20004;-49
2021/07/10 08:30:57;;;;;;;10.60;6.47;;;20.10;99.90;;;;;;6217009;23;20004;-49
2021/07/10 08:33:22;;;;;;;7.57;5.18;;;20.20;99.90;;;;;;6217446;23;20005;-48
2021/07/10 08:35:48;;;;;;;9.88;5.53;;;20.30;99.90;;;;;;6216507;23;20012;-49
2021/07/10 08:38:13;;;;;;;9.18;5.97;;;20.40;99.90;;;;;;6216773;23;20005;-49
2021/07/10 08:40:39;;;;;;;7.53;5.32;;;20.40;99.90;;;;;;6215991;23;20011;-48
2021/07/10 08:43:04;;;;;;;10.50;6.13;;;20.40;99.90;;;;;;6217365;23;20007;-48
2021/07/10 08:45:33;;;;;;;8.05;6.32;;;20.60;99.90;;;;;;6217467;23;20001;-48
2021/07/10 08:48:02;;;;;;;10.77;6.53;;;20.70;99.90;;;;;;6216615;23;20001;-48
2021/07/10 08:50:28;;;;;;;9.52;6.45;;;20.70;99.90;;;;;;6216976;23;20092;-48
2021/07/10 08:52:53;;;;;;;11.05;6.10;;;20.80;99.90;;;;;;6217357;23;20032;-49
2021/07/10 08:55:20;;;;;;;14.73;6.57;;;20.80;99.90;;;;;;6216228;23;20008;-49
2021/07/10 08:57:45;;;;;;;11.52;8.25;;;20.90;99.90;;;;;;6216519;23;20019;-48
2021/07/10 09:00:17;;;;;;;12.00;7.00;;;21.00;99.90;;;;;;6217367;23;20004;-48
2021/07/10 09:02:47;;;;;;;9.48;6.30;;;20.90;99.90;;;;;;6217577;23;20001;-49
2021/07/10 09:05:13;;;;;;;15.18;6.75;;;20.90;99.90;;;;;;6215726;23;20012;-49
2021/07/10 09:08:16;;;;;;;9.15;5.82;;;21.00;99.90;;;;;;6215002;23;20005;-49
2021/07/10 09:10:44;;;;;;;7.93;6.18;;;21.10;99.90;;;;;;6215767;23;20083;-48
2021/07/10 09:13:11;;;;;;;8.85;6.55;;;21.20;99.90;;;;;;6215566;23;20317;-50
2021/07/10 09:15:37;;;;;;;10.35;6.70;;;21.30;99.90;;;;;;6215515;23;20587;-49
2021/07/10 09:18:06;;;;;;;13.55;6.95;;;21.40;99.90;;;;;;6213247;23;20036;-51
2021/07/10 09:20:32;;;;;;;15.25;7.32;;;21.50;99.90;;;;;;6213366;23;20425;-49
2021/07/10 09:22:57;;;;;;;10.10;6.25;;;21.60;99.90;;;;;;6213114;23;20008;-48
2021/07/10 09:25:29;;;;;;;14.15;6.32;;;21.70;99.90;;;;;;6214780;23;19996;-51
2021/07/10 09:27:56;;;;;;;9.32;6.10;;;21.70;99.90;;;;;;6214313;23;20047;-48
2021/07/10 09:30:36;;;;;;;8.25;6.18;;;21.60;99.90;;;;;;6215209;23;20032;-49
2021/07/10 09:33:13;;;;;;;8.32;6.43;;;21.70;99.90;;;;;;6215353;23;20032;-50
2021/07/10 09:35:56;;;;;;;10.07;6.38;;;21.90;99.90;;;;;;6215356;23;20012;-48
2021/07/10 09:38:22;;;;;;;8.80;5.93;;;21.90;99.90;;;;;;6214729;23;20376;-49
2021/07/10 09:41:22;;;;;;;6.97;5.07;;;21.80;99.90;;;;;;6214568;23;20345;-48
2021/07/10 09:43:48;;;;;;;9.20;5.63;;;21.80;99.90;;;;;;6215258;23;20012;-48
2021/07/10 09:46:25;;;;;;;13.50;6.05;;;21.90;99.90;;;;;;6214641;23;20019;-48
2021/07/10 09:48:50;;;;;;;6.53;5.25;;;22.00;99.90;;;;;;6214637;23;20032;-48
2021/07/10 09:51:23;;;;;;;8.98;5.65;;;22.00;99.90;;;;;;6215247;23;20025;-51
2021/07/10 09:54:06;;;;;;;8.80;5.80;;;22.00;99.90;;;;;;6214412;23;20000;-48
2021/07/10 09:56:34;;;;;;;8.23;4.50;;;22.10;99.90;;;;;;6215385;23;20000;-48
2021/07/10 09:59:18;;;;;;;10.40;5.53;;;22.30;99.90;;;;;;6214717;23;20405;-48
2021/07/10 10:01:45;;;;;;;5.78;4.38;;;22.50;99.90;;;;;;6214773;23;20387;-48
2021/07/10 10:04:22;;;;;;;8.98;4.80;;;22.60;99.90;;;;;;6214742;23;20027;-49
2021/07/10 10:06:47;;;;;;;11.32;5.40;;;22.70;99.90;;;;;;6213705;23;20457;-49
2021/07/10 10:09:18;;;;;;;7.85;5.30;;;22.90;99.90;;;;;;6213972;23;20004;-48
2021/07/10 10:11:53;;;;;;;7.90;5.07;;;22.90;99.90;;;;;;6214507;23;20493;-49
2021/07/10 10:14:20;;;;;;;8.60;4.82;;;22.90;99.90;;;;;;6214898;23;20007;-48
2021/07/10 10:16:49;;;;;;;8.30;4.93;;;23.00;99.90;;;;;;6188238;23;20302;-48
2021/07/10 10:19:23;;;;;;;11.40;4.57;;;23.10;99.90;;;;;;6214405;23;19996;-48
2021/07/10 10:21:52;;;;;;;5.97;4.30;;;23.30;99.90;;;;;;6215070;23;20433;-49
2021/07/10 10:24:19;;;;;;;6.50;5.28;;;23.20;99.90;;;;;;6214745;23;20369;-48
2021/07/10 10:26:46;;;;;;;6.95;5.82;;;23.40;99.90;;;;;;6214627;23;20055;-50
2021/07/10 10:29:13;;;;;;;7.72;4.38;;;23.50;99.90;;;;;;6214316;23;20416;-49
2021/07/10 10:31:41;;;;;;;7.53;4.35;;;23.50;99.90;;;;;;6214403;23;20008;-50
2021/07/10 10:34:07;;;;;;;5.32;4.63;;;23.50;99.90;;;;;;6214744;23;20444;-50
2021/07/10 10:36:35;;;;;;;11.80;4.15;;;23.60;99.90;;;;;;6215100;23;20004;-48
2021/07/10 10:39:04;;;;;;;7.63;4.40;;;23.50;99.90;;;;;;6214300;23;20078;-48
2021/07/10 10:41:30;;;;;;;6.00;4.57;;;23.50;99.90;;;;;;6214365;23;20512;-48
2021/07/10 10:43:56;;;;;;;5.25;3.95;;;23.30;99.90;;;;;;6214410;23;20086;-50
2021/07/10 10:46:25;;;;;;;5.55;4.18;;;23.10;99.90;;;;;;6214884;23;20004;-48
2021/07/10 10:48:52;;;;;;;5.25;3.50;;;23.00;99.90;;;;;;6214569;23;20004;-48
2021/07/10 10:51:31;;;;;;;5.18;4.10;;;22.90;99.90;;;;;;6214532;23;20040;-49
2021/07/10 10:54:19;;;;;;;5.05;4.32;;;23.10;99.90;;;;;;6214928;23;20413;-48
2021/07/10 10:56:45;;;;;;;6.95;3.65;;;23.30;99.90;;;;;;6213890;23;20418;-49
2021/07/10 10:59:32;;;;;;;6.95;3.95;;;23.60;99.90;;;;;;6214192;23;20354;-50
2021/07/10 11:01:58;;;;;;;6.30;4.05;;;24.10;99.90;;;;;;6211915;23;20059;-48
2021/07/10 11:04:45;;;;;;;4.85;3.72;;;24.80;99.90;;;;;;6211994;23;20016;-53
2021/07/10 11:07:35;;;;;;;4.85;4.07;;;25.10;99.90;;;;;;6211014;23;20405;-48
2021/07/10 11:10:13;;;;;;;7.85;3.63;;;24.90;99.90;;;;;;6211713;23;20008;-50
2021/07/10 11:12:52;;;;;;;5.45;3.80;;;25.50;99.90;;;;;;6211528;23;20070;-49
2021/07/10 11:15:27;;;;;;;7.57;3.08;;;25.80;99.90;;;;;;6212595;23;20009;-50
2021/07/10 11:17:54;;;;;;;4.90;3.70;;;25.70;99.90;;;;;;6213817;23;20003;-49
2021/07/10 11:20:43;;;;;;;6.93;4.15;;;25.50;99.90;;;;;;6212443;23;20016;-49
2021/07/10 11:23:09;;;;;;;6.25;3.40;;;25.20;99.90;;;;;;6211790;23;20447;-49
2021/07/10 11:25:49;;;;;;;5.40;3.50;;;25.10;99.90;;;;;;6211473;23;20000;-48
2021/07/10 11:28:16;;;;;;;4.03;3.40;;;25.00;99.90;;;;;;6211357;23;20282;-48
2021/07/10 11:30:49;;;;;;;4.97;3.35;;;25.10;99.90;;;;;;6211410;23;20009;-50
2021/07/10 11:33:16;;;;;;;5.13;3.50;;;25.20;99.90;;;;;;6161563;23;20008;-50
2021/07/10 11:35:46;;;;;;;5.10;2.83;;;25.40;99.90;;;;;;6213282;23;20012;-49
2021/07/10 11:38:37;;;;;;;3.63;3.22;;;25.70;99.90;;;;;;6213477;23;20066;-50
2021/07/10 11:41:03;;;;;;;5.93;3.22;;;25.90;99.90;;;;;;6213034;23;20001;-50
2021/07/10 11:43:39;;;;;;;11.63;4.25;;;25.90;99.90;;;;;;6213626;23;20047;-51
2021/07/10 11:46:05;;;;;;;5.53;3.15;;;26.00;99.90;;;;;;6212181;23;20011;-50
2021/07/10 11:48:33;;;;;;;5.97;2.97;;;26.20;99.90;;;;;;6212716;23;20008;-50
2021/07/10 11:51:01;;;;;;;7.32;3.28;;;26.00;99.90;;;;;;6212906;23;20021;-52
2021/07/10 11:53:27;;;;;;;3.92;3.00;;;25.80;99.90;;;;;;6213872;23;20008;-50
2021/07/10 11:55:53;;;;;;;3.60;2.88;;;25.80;99.90;;;;;;6212698;23;20637;-55
2021/07/10 11:58:20;;;;;;;7.15;3.08;;;25.90;99.90;;;;;;6212732;23;20143;-49
2021/07/10 12:00:46;;;;;;;4.38;2.63;;;25.90;99.90;;;;;;6212235;23;20012;-51
2021/07/10 12:03:23;;;;;;;4.70;2.70;;;25.90;99.90;;;;;;6213246;23;20001;-50
2021/07/10 12:05:55;;;;;;;6.35;2.97;;;;;;;;;;6211935;23;20005;-49
2021/07/10 12:08:20;;;;;;;4.60;2.90;;;26.00;99.90;;;;;;6211919;23;20000;-49
2021/07/10 12:10:48;;;;;;;4.57;2.80;;;26.20;97.50;;;;;;6212545;23;20320;-49
2021/07/10 12:13:17;;;;;;;6.40;3.13;;;26.20;98.70;;;;;;6212999;23;20015;-51
2021/07/10 12:15:47;;;;;;;4.35;2.45;;;26.20;99.80;;;;;;6213610;23;20000;-49
2021/07/10 12:18:20;;;;;;;5.30;3.28;;;26.20;97.00;;;;;;6213358;23;20005;-49
2021/07/10 12:21:02;;;;;;;4.55;2.88;;;26.20;98.30;;;;;;6213630;23;20008;-51
2021/07/10 12:23:29;;;;;;;4.80;2.97;;;26.30;98.80;;;;;;6214504;23;20063;-49
2021/07/10 12:26:13;;;;;;;5.85;3.10;;;26.50;98.70;;;;;;6213589;23;19997;-52
2021/07/10 12:28:42;;;;;;;5.70;3.42;;;26.50;95.10;;;;;;6213693;23;20059;-53
2021/07/10 12:31:23;;;;;;;4.55;2.97;;;26.40;93.80;;;;;;6214289;23;20417;-49
2021/07/10 12:33:54;;;;;;;3.92;2.72;;;26.20;95.00;;;;;;6214363;23;20005;-55
2021/07/10 12:36:29;;;;;;;3.60;3.30;;;26.20;97.30;;;;;;6213341;23;20011;-50
2021/07/10 12:39:00;;;;;;;4.78;2.90;;;26.40;99.20;;;;;;6212983;23;20027;-50
2021/07/10 12:41:40;;;;;;;4.80;3.17;;;26.70;95.70;;;;;;6215022;23;20004;-48